Time;durP1;ratioP1;P1;durP2;ratioP2;P2;SDS_P1;SDS_P2;PMS_P1;PMS_P2;Temp;Humidity;BMP_temperature;BMP_pressure;BME280_temperature;BME280_humidity;BME280_pressure;Samples;Min_cycle;Max_cycle;Signal;HPM_P1;HPM_P2
2021/10/09 00:02:10;;;;;;;4.00;1.70;;;21.10;49.20;;;;;;4990064;28;20690;-47
2021/10/09 00:04:40;;;;;;;3.72;1.70;;;21.20;49.30;;;;;;4991478;28;20202;-53
2021/10/09 00:07:11;;;;;;;2.85;1.83;;;21.20;49.30;;;;;;4991571;28;20657;-50
2021/10/09 00:09:42;;;;;;;3.70;1.92;;;21.20;49.20;;;;;;4988416;28;20264;-53
2021/10/09 00:12:13;;;;;;;4.00;1.70;;;21.20;49.20;;;;;;4990411;28;20218;-53
2021/10/09 00:14:43;;;;;;;3.72;1.77;;;21.20;49.20;;;;;;4976767;28;20277;-53
2021/10/09 00:17:18;;;;;;;3.50;1.80;;;21.20;49.20;;;;;;4986727;28;20197;-47
2021/10/09 00:19:48;;;;;;;3.30;1.80;;;21.20;49.20;;;;;;4986770;28;20202;-49
2021/10/09 00:22:19;;;;;;;3.30;1.63;;;21.20;49.20;;;;;;4979368;28;20629;-43
2021/10/09 00:24:50;;;;;;;3.95;1.60;;;21.30;49.20;;;;;;4991949;28;20198;-44
2021/10/09 00:27:20;;;;;;;3.20;1.80;;;21.30;49.20;;;;;;4989706;28;20205;-47
2021/10/09 00:29:51;;;;;;;2.55;1.58;;;21.30;49.10;;;;;;4989464;28;20198;-45
2021/10/09 00:32:23;;;;;;;3.85;1.90;;;21.30;49.10;;;;;;4993707;28;20727;-50
2021/10/09 00:34:54;;;;;;;2.85;1.65;;;21.30;49.10;;;;;;4991007;28;20233;-45
2021/10/09 00:37:24;;;;;;;2.58;1.63;;;21.30;49.00;;;;;;4989777;28;20590;-45
2021/10/09 00:39:55;;;;;;;4.47;2.13;;;21.30;49.00;;;;;;4990011;28;20630;-43
2021/10/09 00:42:25;;;;;;;3.40;1.80;;;21.30;48.90;;;;;;4975420;28;20245;-49
2021/10/09 00:44:56;;;;;;;5.00;2.20;;;21.40;49.00;;;;;;4987682;28;20209;-45
2021/10/09 00:47:29;;;;;;;1.98;1.50;;;21.40;49.00;;;;;;4987983;28;20198;-44
2021/10/09 00:49:59;;;;;;;3.20;1.55;;;21.40;49.00;;;;;;4992927;28;20663;-49
2021/10/09 00:52:34;;;;;;;2.78;1.83;;;21.40;48.90;;;;;;4977750;28;20253;-51
2021/10/09 00:55:07;;;;;;;3.75;1.73;;;21.40;48.90;;;;;;4986585;28;20572;-44
2021/10/09 00:57:37;;;;;;;2.95;1.73;;;21.40;48.90;;;;;;4989838;28;20221;-48
2021/10/09 01:00:09;;;;;;;4.25;2.10;;;21.40;48.90;;;;;;4993031;28;20292;-49
2021/10/09 01:02:42;;;;;;;2.47;1.50;;;21.40;48.90;;;;;;4987504;28;20225;-45
2021/10/09 01:05:13;;;;;;;3.22;1.85;;;21.40;48.90;;;;;;4988556;28;20663;-44
2021/10/09 01:07:44;;;;;;;4.63;2.58;;;21.40;49.00;;;;;;4991432;28;20230;-49
2021/10/09 01:10:14;;;;;;;6.13;2.00;;;21.40;49.20;;;;;;4992373;28;20244;-43
2021/10/09 01:12:45;;;;;;;4.00;2.00;;;21.40;49.30;;;;;;4988908;28;20256;-49
2021/10/09 01:15:23;;;;;;;2.97;2.03;;;21.40;49.30;;;;;;4985759;28;20244;-47
2021/10/09 01:17:55;;;;;;;3.47;2.10;;;21.40;49.40;;;;;;4992077;28;20206;-44
2021/10/09 01:20:28;;;;;;;2.83;1.98;;;21.50;49.50;;;;;;4977594;28;20288;-49
2021/10/09 01:23:03;;;;;;;7.07;2.45;;;21.50;49.70;;;;;;4984022;28;20279;-52
2021/10/09 01:25:34;;;;;;;7.40;2.30;;;21.50;49.80;;;;;;4989105;28;20236;-41
2021/10/09 01:28:06;;;;;;;3.75;2.35;;;21.50;49.80;;;;;;4993004;28;20623;-47
2021/10/09 01:30:36;;;;;;;4.10;2.53;;;21.50;49.80;;;;;;4980144;28;20289;-54
2021/10/09 01:33:07;;;;;;;3.90;2.35;;;21.60;49.80;;;;;;4982497;28;20252;-43
2021/10/09 01:35:51;;;;;;;5.25;3.03;;;21.60;49.90;;;;;;4991600;28;20641;-49
2021/10/09 01:38:23;;;;;;;4.55;2.15;;;21.60;50.00;;;;;;4988507;28;20236;-44
2021/10/09 01:40:54;;;;;;;4.07;1.92;;;21.60;50.20;;;;;;4987523;28;20323;-47
2021/10/09 01:43:25;;;;;;;6.35;2.70;;;21.60;50.60;;;;;;4985863;28;20308;-44
2021/10/09 01:45:56;;;;;;;7.05;2.33;;;21.60;50.60;;;;;;4989694;28;20284;-44
2021/10/09 01:48:34;;;;;;;3.92;2.30;;;21.60;50.70;;;;;;4989339;28;20285;-43
2021/10/09 01:51:08;;;;;;;4.18;2.20;;;21.60;50.70;;;;;;4983621;28;20245;-50
2021/10/09 01:53:40;;;;;;;4.63;2.63;;;21.60;50.80;;;;;;4980727;28;20591;-43
2021/10/09 01:56:11;;;;;;;3.30;2.55;;;21.60;50.80;;;;;;4990999;28;20264;-50
2021/10/09 01:58:41;;;;;;;6.60;2.10;;;21.60;50.70;;;;;;4977213;28;20298;-44
2021/10/09 02:01:12;;;;;;;3.35;2.15;;;21.60;50.70;;;;;;4981814;28;20221;-43
2021/10/09 02:03:42;;;;;;;2.90;1.98;;;21.60;50.70;;;;;;4989449;28;20244;-42
2021/10/09 02:06:15;;;;;;;2.72;1.85;;;21.60;50.70;;;;;;4989909;28;20201;-53
2021/10/09 02:08:45;;;;;;;2.00;1.60;;;21.60;50.60;;;;;;4985722;28;20201;-54
2021/10/09 02:11:18;;;;;;;3.28;2.05;;;21.60;50.50;;;;;;4988136;28;20636;-54
2021/10/09 02:13:52;;;;;;;4.43;2.10;;;21.60;50.50;;;;;;4975202;28;20571;-55
2021/10/09 02:24:08;;;;;;;2.70;1.70;;;21.60;50.30;;;;;;4982323;28;20206;-55
2021/10/09 02:24:56;;;;;;;2.85;1.50;;;21.60;50.30;;;;;;4988100;28;20221;-57
2021/10/09 02:27:27;;;;;;;3.30;1.80;;;21.60;50.20;;;;;;4990630;28;20201;-54
2021/10/09 02:29:57;;;;;;;3.00;2.10;;;21.50;50.20;;;;;;4985176;28;20293;-56
2021/10/09 02:32:28;;;;;;;2.25;1.60;;;21.50;50.80;;;;;;4985812;28;20221;-55
2021/10/09 02:34:58;;;;;;;2.78;2.00;;;21.50;50.20;;;;;;4975379;28;20736;-49
2021/10/09 02:37:31;;;;;;;2.45;1.50;;;21.50;50.30;;;;;;4987166;28;20236;-56
2021/10/09 02:40:01;;;;;;;3.55;1.60;;;21.50;50.40;;;;;;4986721;28;20244;-54
2021/10/09 02:42:32;;;;;;;2.63;1.45;;;21.50;50.30;;;;;;4987915;28;20308;-56
2021/10/09 02:45:06;;;;;;;3.13;1.85;;;21.50;50.20;;;;;;4990687;28;20205;-56
2021/10/09 02:47:36;;;;;;;2.70;1.40;;;21.50;50.20;;;;;;4987453;28;20638;-52
2021/10/09 02:50:11;;;;;;;1.92;1.30;;;21.50;50.20;;;;;;4985935;28;20268;-56
2021/10/09 02:52:43;;;;;;;2.28;1.60;;;21.50;50.20;;;;;;4987538;28;20224;-56
2021/10/09 02:55:18;;;;;;;2.08;1.52;;;21.50;50.20;;;;;;4987885;28;20233;-57
2021/10/09 02:57:49;;;;;;;3.88;1.60;;;21.50;50.20;;;;;;4980067;28;20198;-57
2021/10/09 03:00:20;;;;;;;2.35;1.50;;;21.50;50.20;;;;;;4979246;28;20667;-56
2021/10/09 03:02:51;;;;;;;2.28;1.63;;;21.50;50.20;;;;;;4971914;28;20308;-57
2021/10/09 03:05:52;;;;;;;2.70;1.67;;;21.50;50.20;;;;;;4986628;28;20313;-55
2021/10/09 03:08:25;;;;;;;2.58;1.80;;;21.50;50.20;;;;;;4980246;28;20201;-43
2021/10/09 03:10:55;;;;;;;4.15;1.70;;;21.50;50.10;;;;;;4983728;28;20209;-44
2021/10/09 03:13:26;;;;;;;4.65;2.00;;;21.50;50.10;;;;;;4990997;28;20709;-41
2021/10/09 03:15:56;;;;;;;3.28;1.70;;;21.50;50.10;;;;;;4976579;28;20225;-49
2021/10/09 03:18:27;;;;;;;3.97;2.05;;;21.50;50.10;;;;;;4982882;28;20193;-41
2021/10/09 03:20:57;;;;;;;2.40;1.70;;;21.50;50.10;;;;;;4985639;28;20256;-43
2021/10/09 03:23:30;;;;;;;3.50;2.05;;;21.50;50.00;;;;;;4989341;28;20287;-42
2021/10/09 03:26:00;;;;;;;4.60;2.47;;;21.50;50.00;;;;;;4988379;28;20233;-45
2021/10/09 03:28:31;;;;;;;3.03;2.10;;;21.50;50.00;;;;;;4990925;28;20228;-41
2021/10/09 03:31:01;;;;;;;2.80;2.05;;;21.50;50.00;;;;;;4994359;28;20284;-42
2021/10/09 03:33:32;;;;;;;3.00;2.10;;;21.50;50.00;;;;;;4980641;28;20261;-45
2021/10/09 03:36:02;;;;;;;2.40;1.75;;;21.50;50.00;;;;;;4986240;28;20219;-50
2021/10/09 03:38:36;;;;;;;2.85;2.22;;;21.50;50.10;;;;;;4989355;28;20241;-47
2021/10/09 03:41:08;;;;;;;3.28;2.10;;;21.50;50.10;;;;;;4994214;28;20224;-49
2021/10/09 03:43:39;;;;;;;3.40;2.53;;;21.50;50.00;;;;;;4990655;28;20217;-51
2021/10/09 03:46:14;;;;;;;5.10;2.33;;;21.50;50.00;;;;;;4989155;28;20229;-49
2021/10/09 03:48:55;;;;;;;3.42;2.40;;;21.60;50.00;;;;;;4993183;28;20255;-48
2021/10/09 03:54:14;;;;;;;3.20;1.88;;;21.60;49.90;;;;;;4980577;28;20208;-53
2021/10/09 03:56:44;;;;;;;3.03;2.22;;;21.60;49.90;;;;;;4985117;28;20234;-49
2021/10/09 03:59:15;;;;;;;2.42;2.22;;;21.70;50.00;;;;;;4993373;28;20325;-51
2021/10/09 04:01:45;;;;;;;4.38;2.65;;;21.70;49.90;;;;;;4992181;28;20307;-51
2021/10/09 04:04:16;;;;;;;2.72;2.40;;;21.70;49.90;;;;;;4982971;28;20203;-50
2021/10/09 04:06:46;;;;;;;3.05;2.30;;;21.70;49.90;;;;;;4980777;28;20230;-45
2021/10/09 04:09:18;;;;;;;2.75;2.25;;;21.80;49.90;;;;;;4976946;28;20234;-53
2021/10/09 04:11:49;;;;;;;3.72;2.30;;;21.70;49.80;;;;;;4990924;28;20678;-51
2021/10/09 04:14:19;;;;;;;2.42;2.00;;;21.80;49.80;;;;;;4989298;28;20281;-52
2021/10/09 04:16:50;;;;;;;3.42;2.33;;;21.80;49.80;;;;;;4990147;28;20241;-52
2021/10/09 04:19:20;;;;;;;4.68;2.40;;;21.80;49.70;;;;;;4993462;28;20609;-48
2021/10/09 04:21:51;;;;;;;2.33;1.88;;;21.80;49.70;;;;;;4989626;28;20308;-50
2021/10/09 04:24:23;;;;;;;3.05;2.17;;;21.80;49.70;;;;;;4989771;28;20710;-52
2021/10/09 04:26:54;;;;;;;3.53;2.30;;;21.90;49.70;;;;;;4994014;28;20237;-53
2021/10/09 04:29:24;;;;;;;2.45;2.03;;;21.90;49.70;;;;;;4990099;28;20255;-48
2021/10/09 04:31:55;;;;;;;2.42;2.22;;;21.90;49.60;;;;;;4986135;28;20303;-49
2021/10/09 04:34:27;;;;;;;3.72;2.30;;;21.90;49.60;;;;;;4991724;28;20237;-48
2021/10/09 04:36:58;;;;;;;2.58;2.13;;;21.90;49.50;;;;;;4990397;28;20623;-53
2021/10/09 04:39:30;;;;;;;2.30;2.08;;;21.90;49.50;;;;;;4980156;28;20281;-50
2021/10/09 04:42:02;;;;;;;2.65;2.05;;;21.90;49.50;;;;;;4981765;28;20316;-52
2021/10/09 04:44:32;;;;;;;2.05;1.83;;;21.90;49.40;;;;;;4992133;28;20194;-52
2021/10/09 04:47:03;;;;;;;2.88;2.10;;;21.90;49.40;;;;;;4990819;28;20243;-48
2021/10/09 04:49:35;;;;;;;2.80;2.30;;;21.90;49.40;;;;;;4988745;28;20280;-51
2021/10/09 04:52:06;;;;;;;3.45;2.00;;;21.90;49.30;;;;;;4990547;28;20257;-52
2021/10/09 04:54:38;;;;;;;2.95;2.22;;;21.90;49.40;;;;;;4992433;28;20233;-50
2021/10/09 04:57:09;;;;;;;3.72;2.03;;;21.90;49.30;;;;;;4979909;28;20289;-55
2021/10/09 04:59:39;;;;;;;3.03;2.20;;;21.90;49.30;;;;;;4978342;28;20276;-49
2021/10/09 05:02:10;;;;;;;2.38;1.95;;;21.90;49.30;;;;;;4976491;28;20773;-53
2021/10/09 05:04:40;;;;;;;2.33;1.85;;;21.90;49.30;;;;;;4990393;28;20232;-51
2021/10/09 05:07:11;;;;;;;2.60;2.08;;;21.90;49.30;;;;;;4988011;28;20642;-52
2021/10/09 05:09:44;;;;;;;2.20;1.90;;;21.90;49.30;;;;;;4987256;28;20663;-52
2021/10/09 05:12:14;;;;;;;2.35;1.70;;;21.90;49.30;;;;;;4991811;28;20715;-54
2021/10/09 05:14:45;;;;;;;3.60;2.13;;;21.90;49.40;;;;;;4984907;28;20236;-48
2021/10/09 05:17:15;;;;;;;3.63;2.10;;;21.90;49.20;;;;;;4982754;28;20629;-49
2021/10/09 05:19:46;;;;;;;2.92;1.85;;;21.90;49.20;;;;;;4988745;28;20225;-52
2021/10/09 05:22:16;;;;;;;3.15;1.98;;;21.90;49.20;;;;;;4990928;28;20279;-53
2021/10/09 05:24:50;;;;;;;2.58;2.25;;;21.90;49.20;;;;;;4981606;28;20257;-53
2021/10/09 05:27:21;;;;;;;2.00;1.80;;;21.80;49.10;;;;;;4980136;28;20284;-50
2021/10/09 05:29:52;;;;;;;2.42;1.80;;;21.80;49.10;;;;;;4975998;28;20256;-50
2021/10/09 05:32:24;;;;;;;1.90;1.67;;;21.80;49.10;;;;;;4985637;28;20210;-50
2021/10/09 05:34:55;;;;;;;1.90;1.70;;;21.80;49.10;;;;;;4987830;28;20686;-53
2021/10/09 05:37:27;;;;;;;1.83;1.70;;;21.80;49.70;;;;;;4991712;28;20695;-52
2021/10/09 05:39:59;;;;;;;2.65;1.90;;;21.80;49.10;;;;;;4980526;28;20198;-46
2021/10/09 05:42:30;;;;;;;3.20;2.10;;;21.80;49.10;;;;;;4978827;28;20313;-52
2021/10/09 05:45:00;;;;;;;1.95;1.77;;;21.80;49.10;;;;;;4979496;28;20234;-51
2021/10/09 05:47:31;;;;;;;2.30;2.10;;;21.80;49.10;;;;;;4992006;28;20267;-48
2021/10/09 05:50:05;;;;;;;2.20;2.00;;;21.80;49.10;;;;;;4989208;28;20745;-52
2021/10/09 05:52:40;;;;;;;3.58;1.98;;;21.70;49.10;;;;;;4982828;28;20218;-53
2021/10/09 05:55:17;;;;;;;3.22;1.98;;;21.80;49.10;;;;;;4989408;28;20201;-47
2021/10/09 05:57:57;;;;;;;2.35;1.80;;;21.70;49.10;;;;;;4989897;28;20201;-50
2021/10/09 06:00:51;;;;;;;2.03;1.83;;;21.70;49.10;;;;;;4989318;28;20212;-51
2021/10/09 06:43:18;;;;;;;1.85;1.63;;;21.50;49.10;;;;;;4988843;28;20324;-46
2021/10/09 06:46:09;;;;;;;2.90;1.75;;;21.50;49.20;;;;;;4987589;28;20669;-49
2021/10/09 06:49:05;;;;;;;2.50;1.70;;;21.50;49.10;;;;;;4989203;28;20654;-56
2021/10/09 06:59:55;;;;;;;4.75;2.40;;;21.40;49.10;;;;;;4974874;28;20224;-52
2021/10/09 07:02:28;;;;;;;3.10;2.38;;;21.40;49.40;;;;;;4975763;28;20273;-51
2021/10/09 07:05:00;;;;;;;2.80;2.50;;;21.40;49.70;;;;;;4980937;28;20240;-51
2021/10/09 07:07:34;;;;;;;4.50;2.63;;;21.40;49.70;;;;;;4988029;28;20206;-49
2021/10/09 07:10:05;;;;;;;2.58;2.20;;;21.40;49.70;;;;;;4989962;28;20199;-50
2021/10/09 07:12:36;;;;;;;2.97;2.20;;;21.30;49.50;;;;;;4987049;28;20248;-44
2021/10/09 07:15:06;;;;;;;2.60;2.28;;;21.30;49.50;;;;;;4983817;28;20206;-47
2021/10/09 07:17:39;;;;;;;2.72;2.00;;;21.30;49.50;;;;;;4985791;28;20732;-50
2021/10/09 07:20:10;;;;;;;3.25;2.42;;;21.30;49.70;;;;;;4987760;28;20221;-47
2021/10/09 07:22:41;;;;;;;2.53;2.10;;;21.30;49.50;;;;;;4985688;28;20311;-47
2021/10/09 07:25:11;;;;;;;3.47;2.22;;;21.30;49.50;;;;;;4987997;28;20572;-52
2021/10/09 07:27:42;;;;;;;2.97;2.20;;;21.20;49.40;;;;;;4989783;28;20272;-45
2021/10/09 07:30:13;;;;;;;2.28;2.05;;;21.20;49.40;;;;;;4985844;28;20281;-46
2021/10/09 07:32:46;;;;;;;3.03;2.40;;;21.20;49.40;;;;;;4985905;28;20222;-54
2021/10/09 07:35:16;;;;;;;2.45;2.20;;;21.20;49.40;;;;;;4976016;28;20198;-53
2021/10/09 07:37:47;;;;;;;3.38;2.40;;;21.20;49.40;;;;;;4974095;28;20233;-54
2021/10/09 07:40:18;;;;;;;2.45;2.08;;;21.10;49.40;;;;;;4978723;28;20813;-54
2021/10/09 07:42:49;;;;;;;3.00;2.00;;;21.20;49.40;;;;;;4978614;28;20233;-54
2021/10/09 07:45:20;;;;;;;2.40;1.98;;;21.20;49.40;;;;;;4983543;28;20765;-52
2021/10/09 07:47:52;;;;;;;3.88;2.20;;;21.10;49.40;;;;;;4988642;28;20237;-49
2021/10/09 07:50:23;;;;;;;2.65;1.92;;;21.10;49.40;;;;;;4986391;28;20233;-54
2021/10/09 07:52:53;;;;;;;2.22;2.03;;;21.10;49.40;;;;;;4988026;28;20233;-48
2021/10/09 07:55:24;;;;;;;2.22;1.90;;;21.10;49.40;;;;;;4973541;28;20294;-50
2021/10/09 07:57:54;;;;;;;2.95;2.13;;;21.00;49.40;;;;;;4984362;28;20229;-54
2021/10/09 08:00:25;;;;;;;2.30;1.88;;;21.00;49.40;;;;;;4978953;28;20692;-52
2021/10/09 08:03:02;;;;;;;2.03;1.85;;;21.00;49.40;;;;;;4983797;28;20737;-50
2021/10/09 08:05:34;;;;;;;2.22;1.85;;;21.00;49.40;;;;;;4980639;28;20198;-46
2021/10/09 08:08:04;;;;;;;2.30;1.85;;;20.90;49.30;;;;;;4983238;28;20237;-54
2021/10/09 08:10:35;;;;;;;3.22;2.17;;;21.00;49.40;;;;;;4986470;28;20252;-50
2021/10/09 08:13:05;;;;;;;2.83;2.00;;;20.90;49.40;;;;;;4990743;28;20249;-50
2021/10/09 08:15:36;;;;;;;2.72;1.70;;;20.90;49.40;;;;;;4981995;28;20606;-49
2021/10/09 08:18:08;;;;;;;2.15;1.67;;;20.90;49.50;;;;;;4983812;28;20225;-50
2021/10/09 08:20:40;;;;;;;2.28;1.90;;;20.90;49.40;;;;;;4986938;28;20229;-53
2021/10/09 08:23:14;;;;;;;2.55;1.92;;;20.80;49.40;;;;;;4988467;28;20243;-52
2021/10/09 08:37:07;;;;;;;2.95;2.00;;;20.70;49.40;;;;;;4976089;28;20201;-51
2021/10/09 08:39:37;;;;;;;2.00;1.88;;;20.70;49.40;;;;;;4983132;28;20296;-56
2021/10/09 08:42:09;;;;;;;2.22;1.98;;;20.70;49.40;;;;;;4989630;28;20641;-53
2021/10/09 08:44:40;;;;;;;2.58;1.80;;;20.60;49.40;;;;;;4980796;28;20768;-55
2021/10/09 08:47:12;;;;;;;2.45;1.95;;;20.60;49.40;;;;;;4979607;28;20507;-56
2021/10/09 08:49:44;;;;;;;2.22;2.00;;;20.60;49.40;;;;;;4979792;28;20648;-55
2021/10/09 08:52:22;;;;;;;2.17;1.90;;;20.60;49.40;;;;;;4975809;28;20627;-52
2021/10/09 08:54:53;;;;;;;2.30;1.85;;;20.60;49.60;;;;;;4975910;28;20237;-48
2021/10/09 08:57:25;;;;;;;2.55;2.05;;;20.50;49.50;;;;;;4980944;28;20721;-55
2021/10/09 08:59:58;;;;;;;2.65;1.90;;;20.60;49.60;;;;;;4967204;28;20614;-45
2021/10/09 09:02:32;;;;;;;2.08;1.88;;;20.50;49.60;;;;;;4978470;28;20234;-50
2021/10/09 09:05:23;;;;;;;1.73;1.60;;;20.50;49.50;;;;;;4977241;28;20249;-44
2021/10/09 09:08:21;;;;;;;2.08;1.60;;;20.50;49.50;;;;;;4987358;28;20296;-52
2021/10/09 09:25:32;;;;;;;1.80;1.70;;;20.40;49.50;;;;;;4907808;29;20211;-43
2021/10/09 09:31:09;;;;;;;2.03;1.80;;;20.30;49.50;;;;;;4969287;28;20212;-54
2021/10/09 09:33:52;;;;;;;2.10;1.80;;;20.30;49.60;;;;;;4985030;28;20234;-41
2021/10/09 09:36:41;;;;;;;2.00;1.58;;;20.30;49.60;;;;;;4988132;28;20205;-43
2021/10/09 09:39:13;;;;;;;1.70;1.60;;;20.30;49.60;;;;;;4983794;28;20206;-51
2021/10/09 09:41:49;;;;;;;2.13;1.90;;;20.30;49.70;;;;;;4980209;28;20201;-42
2021/10/09 09:44:25;;;;;;;1.80;1.70;;;20.20;49.70;;;;;;4990945;28;20263;-54
2021/10/09 09:47:06;;;;;;;2.47;1.52;;;20.20;49.70;;;;;;4978447;28;20209;-54
2021/10/09 09:49:37;;;;;;;1.77;1.63;;;20.20;49.70;;;;;;4985278;28;20614;-55
2021/10/09 09:52:08;;;;;;;2.08;1.88;;;20.20;49.70;;;;;;4988533;28;20705;-52
2021/10/09 09:54:43;;;;;;;2.67;1.70;;;20.20;49.70;;;;;;4991200;28;20236;-46
2021/10/09 09:57:16;;;;;;;2.10;1.77;;;20.20;49.70;;;;;;4988044;28;20288;-47
2021/10/09 09:59:48;;;;;;;1.95;1.70;;;20.10;49.70;;;;;;4987036;28;20261;-47
2021/10/09 10:02:21;;;;;;;2.10;1.73;;;20.10;49.70;;;;;;4988880;28;20226;-49
2021/10/09 10:04:52;;;;;;;1.67;1.50;;;20.10;49.70;;;;;;4976265;28;20205;-45
2021/10/09 10:07:24;;;;;;;2.17;1.75;;;20.10;49.70;;;;;;4986981;28;20423;-46
2021/10/09 10:09:56;;;;;;;2.28;1.88;;;20.10;49.80;;;;;;4986814;28;20919;-50
2021/10/09 10:12:29;;;;;;;1.52;1.42;;;20.00;49.70;;;;;;4975192;28;20655;-53
2021/10/09 10:15:00;;;;;;;1.85;1.50;;;20.00;49.70;;;;;;4989618;28;20673;-46
2021/10/09 10:17:42;;;;;;;2.28;1.75;;;20.00;49.80;;;;;;4988274;28;20612;-50
2021/10/09 10:20:14;;;;;;;2.00;1.73;;;20.00;49.80;;;;;;4988485;28;20292;-45
2021/10/09 10:22:59;;;;;;;2.40;1.52;;;20.00;49.80;;;;;;4990393;28;20308;-43
2021/10/09 10:25:41;;;;;;;2.67;1.80;;;20.00;49.80;;;;;;4977187;28;20256;-41
2021/10/09 10:28:17;;;;;;;1.67;1.58;;;19.90;49.80;;;;;;4984518;28;20627;-55
2021/10/09 10:30:49;;;;;;;1.65;1.55;;;19.90;49.80;;;;;;4988880;28;20201;-42
2021/10/09 10:33:30;;;;;;;1.70;1.60;;;19.90;49.90;;;;;;4974797;28;20217;-49
2021/10/09 10:36:01;;;;;;;1.63;1.52;;;19.90;49.90;;;;;;4985770;28;20204;-45
2021/10/09 10:38:50;;;;;;;2.15;1.70;;;19.90;49.90;;;;;;4982637;28;20312;-44
2021/10/09 10:41:43;;;;;;;1.85;1.60;;;19.90;49.80;;;;;;4979383;28;20275;-57
2021/10/09 10:44:50;;;;;;;1.90;1.70;;;19.90;49.90;;;;;;4976863;28;20616;-53
2021/10/09 10:47:46;;;;;;;1.92;1.55;;;19.80;49.90;;;;;;4974939;28;20293;-56
2021/10/09 10:57:24;;;;;;;1.63;1.52;;;19.80;49.90;;;;;;4987789;28;20296;-56
2021/10/09 11:00:02;;;;;;;1.73;1.48;;;19.80;49.90;;;;;;4979368;28;20281;-57
2021/10/09 11:02:36;;;;;;;2.00;1.50;;;19.70;49.90;;;;;;4978572;28;20267;-56
2021/10/09 11:05:08;;;;;;;1.70;1.60;;;19.70;50.00;;;;;;4975260;28;20565;-50
2021/10/09 11:07:40;;;;;;;1.60;1.50;;;19.70;50.00;;;;;;4988989;28;20244;-43
2021/10/09 11:10:12;;;;;;;1.45;1.33;;;19.70;50.00;;;;;;4987907;28;20288;-42
2021/10/09 11:12:46;;;;;;;1.48;1.38;;;19.70;50.00;;;;;;4987496;28;20222;-42
2021/10/09 11:15:19;;;;;;;1.67;1.58;;;19.70;50.10;;;;;;4987154;28;20226;-41
2021/10/09 11:17:51;;;;;;;1.60;1.42;;;19.70;50.10;;;;;;4977319;28;20290;-47
2021/10/09 11:20:26;;;;;;;1.60;1.35;;;19.60;50.00;;;;;;4979376;28;20198;-41
2021/10/09 11:22:58;;;;;;;1.85;1.67;;;19.60;50.00;;;;;;4976823;28;20271;-41
2021/10/09 11:25:29;;;;;;;1.40;1.30;;;;;;;;;;4974485;28;20202;-41
2021/10/09 11:28:03;;;;;;;1.60;1.48;;;19.60;49.40;;;;;;4984373;28;20640;-41
2021/10/09 11:30:34;;;;;;;1.88;1.50;;;19.60;50.00;;;;;;4985616;28;20289;-43
2021/10/09 11:33:05;;;;;;;1.77;1.30;;;19.60;50.00;;;;;;4987708;28;20274;-45
2021/10/09 11:35:37;;;;;;;1.80;1.40;;;19.60;50.00;;;;;;4975929;28;20580;-46
2021/10/09 11:38:21;;;;;;;1.75;1.35;;;19.60;50.00;;;;;;4980097;28;20341;-46
2021/10/09 11:40:52;;;;;;;1.42;1.30;;;19.50;50.00;;;;;;4979309;28;20237;-42
2021/10/09 11:43:36;;;;;;;1.67;1.58;;;19.50;50.00;;;;;;4989333;28;20233;-46
2021/10/09 11:46:11;;;;;;;1.27;1.17;;;19.50;50.10;;;;;;4989537;28;20592;-43
2021/10/09 11:54:32;;;;;;;1.67;1.40;;;19.50;50.70;;;;;;4991473;28;20217;-50
2021/10/09 11:57:05;;;;;;;1.30;1.20;;;19.50;50.10;;;;;;4993004;28;20201;-46
2021/10/09 11:59:41;;;;;;;1.52;1.35;;;19.40;50.10;;;;;;4981260;28;20241;-50
2021/10/09 12:02:13;;;;;;;1.50;1.15;;;19.40;50.10;;;;;;4981526;28;20659;-51
2021/10/09 12:04:58;;;;;;;1.55;1.45;;;19.40;50.10;;;;;;4978486;28;20232;-51
2021/10/09 12:07:29;;;;;;;1.65;1.42;;;19.40;50.10;;;;;;4992674;28;20607;-49
2021/10/09 12:10:03;;;;;;;2.47;1.40;;;19.40;50.20;;;;;;4987898;28;20206;-48
2021/10/09 12:12:34;;;;;;;1.40;1.30;;;19.40;50.10;;;;;;4989820;28;20253;-45
2021/10/09 12:15:25;;;;;;;1.60;1.30;;;19.40;50.20;;;;;;4993696;28;20693;-50
2021/10/09 12:18:02;;;;;;;1.42;1.30;;;19.40;50.20;;;;;;4977963;28;20234;-50
2021/10/09 12:20:33;;;;;;;1.63;1.40;;;19.40;50.20;;;;;;4980928;28;20233;-46
2021/10/09 12:23:05;;;;;;;1.67;1.48;;;19.40;50.10;;;;;;4982076;28;20577;-51
2021/10/09 12:25:36;;;;;;;1.30;1.20;;;19.40;50.20;;;;;;4993689;28;20198;-44
2021/10/09 12:28:07;;;;;;;1.85;1.38;;;19.30;50.20;;;;;;4978294;28;20233;-44
2021/10/09 12:30:47;;;;;;;1.65;1.30;;;19.30;50.20;;;;;;4986072;28;20284;-52
2021/10/09 12:33:38;;;;;;;1.40;1.27;;;19.30;50.20;;;;;;4988957;28;20709;-51
2021/10/09 12:36:30;;;;;;;1.92;1.23;;;19.30;50.20;;;;;;4992903;28;20320;-48
2021/10/09 12:39:15;;;;;;;1.30;1.20;;;19.30;50.20;;;;;;4993388;28;20201;-47
2021/10/09 12:41:45;;;;;;;1.40;1.30;;;19.30;50.20;;;;;;4988584;28;20233;-52
2021/10/09 12:44:16;;;;;;;1.25;1.15;;;19.30;50.20;;;;;;4990155;28;20648;-52
2021/10/09 12:46:48;;;;;;;1.67;1.20;;;19.30;50.30;;;;;;4992488;28;20284;-46
2021/10/09 12:49:19;;;;;;;1.40;1.10;;;19.20;50.20;;;;;;4992036;28;20288;-50
2021/10/09 12:51:51;;;;;;;1.45;1.35;;;19.20;50.30;;;;;;4988205;28;20289;-47
2021/10/09 12:54:24;;;;;;;1.63;1.40;;;19.20;50.30;;;;;;4989052;28;20233;-47
2021/10/09 12:56:56;;;;;;;1.45;1.33;;;19.20;50.30;;;;;;4993446;28;20237;-52
2021/10/09 12:59:26;;;;;;;1.30;1.20;;;19.20;50.20;;;;;;4978406;28;20198;-52
2021/10/09 13:01:59;;;;;;;1.77;1.30;;;19.20;50.30;;;;;;4981821;28;20218;-50
2021/10/09 13:04:29;;;;;;;1.30;1.20;;;19.20;50.30;;;;;;4979268;28;20314;-49
2021/10/09 13:07:00;;;;;;;1.50;1.40;;;19.20;50.30;;;;;;4976050;28;20249;-51
2021/10/09 13:09:30;;;;;;;1.02;0.93;;;19.10;50.30;;;;;;4987049;28;20240;-51
2021/10/09 13:12:02;;;;;;;1.35;1.25;;;19.10;50.30;;;;;;4989527;28;20731;-50
2021/10/09 13:14:34;;;;;;;1.95;1.23;;;19.10;50.30;;;;;;4988387;28;20625;-52
2021/10/09 13:17:06;;;;;;;1.33;1.20;;;19.10;50.30;;;;;;4978268;28;20194;-54
2021/10/09 13:19:36;;;;;;;1.10;1.00;;;19.10;50.30;;;;;;4985349;28;20284;-48
2021/10/09 13:22:07;;;;;;;1.20;1.10;;;19.10;50.40;;;;;;4987988;28;20261;-55
2021/10/09 13:24:37;;;;;;;1.08;0.98;;;19.10;50.40;;;;;;4990850;28;20663;-50
2021/10/09 13:27:08;;;;;;;2.00;1.10;;;19.10;50.40;;;;;;4988346;28;20241;-54
2021/10/09 13:29:38;;;;;;;1.08;0.98;;;19.10;50.40;;;;;;4988112;28;20628;-52
2021/10/09 13:32:11;;;;;;;2.10;1.10;;;19.10;50.40;;;;;;4977278;28;20248;-55
2021/10/09 13:34:41;;;;;;;1.10;1.00;;;19.00;50.40;;;;;;4979952;28;20234;-53
2021/10/09 13:37:12;;;;;;;1.30;1.20;;;19.00;50.40;;;;;;4987437;28;20287;-53
2021/10/09 13:39:43;;;;;;;2.00;1.00;;;19.00;50.40;;;;;;4989144;28;20233;-52
2021/10/09 13:42:13;;;;;;;1.27;1.00;;;19.00;50.40;;;;;;4975620;28;20246;-51
2021/10/09 13:44:44;;;;;;;1.60;0.90;;;19.00;50.40;;;;;;4988704;28;20324;-47
2021/10/09 13:47:16;;;;;;;1.27;1.17;;;19.00;50.40;;;;;;4989721;28;20233;-52
2021/10/09 13:49:47;;;;;;;1.05;1.00;;;19.00;50.40;;;;;;4991395;28;20233;-49
2021/10/09 13:52:17;;;;;;;1.10;0.90;;;19.00;50.40;;;;;;4990565;28;20237;-50
2021/10/09 13:54:48;;;;;;;0.82;0.77;;;18.90;50.40;;;;;;4988318;28;20229;-47
2021/10/09 13:57:20;;;;;;;1.65;1.25;;;18.90;50.50;;;;;;4988132;28;20237;-57
2021/10/09 13:59:51;;;;;;;1.20;1.10;;;18.90;50.50;;;;;;4991729;28;20197;-48
2021/10/09 14:02:24;;;;;;;1.20;1.10;;;18.90;50.50;;;;;;4988022;28;20248;-50
2021/10/09 14:04:54;;;;;;;1.73;1.27;;;18.90;50.50;;;;;;4987553;28;20312;-54
2021/10/09 14:07:25;;;;;;;1.15;1.00;;;18.90;50.50;;;;;;4990582;28;20549;-49
2021/10/09 14:09:55;;;;;;;1.55;0.98;;;18.90;50.50;;;;;;4982268;28;20280;-53
2021/10/09 14:12:26;;;;;;;1.30;1.20;;;18.80;50.40;;;;;;4981500;28;20273;-55
2021/10/09 14:14:56;;;;;;;1.00;0.90;;;18.80;50.40;;;;;;4979306;28;20674;-56
2021/10/09 14:17:31;;;;;;;1.10;1.00;;;18.80;50.50;;;;;;4991204;28;20272;-53
2021/10/09 14:20:02;;;;;;;1.33;1.10;;;18.80;50.40;;;;;;4989503;28;20292;-52
2021/10/09 14:22:34;;;;;;;1.27;1.00;;;18.80;50.50;;;;;;4984015;28;20324;-46
2021/10/09 14:25:05;;;;;;;1.25;1.00;;;18.80;50.50;;;;;;4988340;28;20280;-50
2021/10/09 14:27:36;;;;;;;1.95;1.00;;;18.70;50.40;;;;;;4989873;28;20289;-53
2021/10/09 14:30:07;;;;;;;1.00;0.90;;;18.70;50.50;;;;;;4986619;28;20565;-53
2021/10/09 14:32:42;;;;;;;1.13;1.02;;;18.70;50.50;;;;;;4987109;28;20649;-50
2021/10/09 14:35:13;;;;;;;1.08;0.98;;;18.70;50.50;;;;;;4990655;28;20636;-54
2021/10/09 14:37:43;;;;;;;2.72;1.17;;;18.70;50.50;;;;;;4989426;28;20232;-55
2021/10/09 14:40:14;;;;;;;1.23;0.98;;;18.70;50.50;;;;;;4980531;28;20257;-54
2021/10/09 14:42:47;;;;;;;1.08;0.90;;;18.70;50.50;;;;;;4978195;28;20225;-47
2021/10/09 14:45:19;;;;;;;1.05;0.95;;;18.60;50.50;;;;;;4974363;28;20642;-54
2021/10/09 14:47:59;;;;;;;1.55;1.05;;;18.60;50.50;;;;;;4987184;28;20232;-48
2021/10/09 14:50:54;;;;;;;1.33;1.08;;;18.60;50.50;;;;;;4983095;28;20230;-46
2021/10/09 15:18:29;;;;;;;2.08;1.00;;;18.40;50.50;;;;;;4982682;28;20718;-47
2021/10/09 15:21:01;;;;;;;1.15;0.80;;;18.40;50.50;;;;;;4990099;28;20247;-51
2021/10/09 15:23:32;;;;;;;0.93;0.80;;;18.40;50.60;;;;;;4985675;28;20253;-48